Terminal Aerodrome Forecast
Issued by NWS Duluth, MN

Home | Current Version | Previous Version | Text Only | Print | Product List | Glossary On
Versions: 1 2 3 4 5 6 7 8 9 10 11 12 13 14 15 16 17 18 19 20 21 22 23 24 25 26 27 28 29 30
000
FTUS43 KDLH 010500
TAFINL
TAF
KINL 010520Z 0106/0206 26006KT P6SM VCSH SCT025 BKN120
      TEMPO 0106/0108 SCT015 OVC025
     FM010800 27003KT 5SM BR SCT007 OVC015
      TEMPO 0108/0112 3SM BR OVC007
     FM011200 29005KT 3SM BR OVC007
     FM011500 30008KT P6SM OVC015
     FM011800 30012KT P6SM BKN035
     FM020100 29003KT P6SM FEW100=

USA.gov is the U.S. government's official web portal to all federal, state and local government web resources and services.